sensor_id;sensor_type;location;lat;lon;timestamp;pressure;altitude;pressure_sealevel;temperature;humidity
56420;BME280;42323;52.170;7.538;2023-04-28T00:01:16;101088.28;;;8.57;nan
56420;BME280;42323;52.170;7.538;2023-04-28T00:03:42;101082.25;;;8.57;nan
56420;BME280;42323;52.170;7.538;2023-04-28T00:06:10;101089.94;;;8.58;nan
56420;BME280;42323;52.170;7.538;2023-04-28T00:08:37;101088.28;;;8.57;nan
56420;BME280;42323;52.170;7.538;2023-04-28T00:11:08;101087.84;;;8.62;nan
56420;BME280;42323;52.170;7.538;2023-04-28T00:13:34;101080.16;;;8.60;nan
56420;BME280;42323;52.170;7.538;2023-04-28T00:16:01;101063.44;;;8.53;nan
56420;BME280;42323;52.170;7.538;2023-04-28T00:18:28;101075.88;;;8.59;nan
56420;BME280;42323;52.170;7.538;2023-04-28T00:20:55;101059.03;;;8.53;nan
56420;BME280;42323;52.170;7.538;2023-04-28T00:23:22;101057.25;;;8.54;nan
56420;BME280;42323;52.170;7.538;2023-04-28T00:25:51;101066.75;;;8.55;nan
56420;BME280;42323;52.170;7.538;2023-04-28T00:28:18;101064.94;;;8.56;nan
56420;BME280;42323;52.170;7.538;2023-04-28T00:30:58;101061.66;;;8.53;nan
56420;BME280;42323;52.170;7.538;2023-04-28T00:33:25;101053.00;;;8.53;nan
56420;BME280;42323;52.170;7.538;2023-04-28T00:35:59;101042.56;;;8.53;nan
56420;BME280;42323;52.170;7.538;2023-04-28T00:38:26;101046.97;;;8.52;nan
56420;BME280;42323;52.170;7.538;2023-04-28T00:40:53;101036.00;;;8.49;nan
56420;BME280;42323;52.170;7.538;2023-04-28T00:43:19;101037.78;;;8.48;nan
56420;BME280;42323;52.170;7.538;2023-04-28T00:45:46;101036.81;;;8.49;nan
56420;BME280;42323;52.170;7.538;2023-04-28T00:48:14;101034.22;;;8.49;nan
56420;BME280;42323;52.170;7.538;2023-04-28T00:50:41;101018.19;;;8.44;nan
56420;BME280;42323;52.170;7.538;2023-04-28T00:53:12;101019.53;;;8.48;nan
56420;BME280;42323;52.170;7.538;2023-04-28T00:55:38;101018.19;;;8.44;nan
56420;BME280;42323;52.170;7.538;2023-04-28T00:58:06;101006.91;;;8.44;nan
56420;BME280;42323;52.170;7.538;2023-04-28T01:00:33;101013.78;;;8.45;nan
56420;BME280;42323;52.170;7.538;2023-04-28T01:03:00;100997.75;;;8.40;nan
56420;BME280;42323;52.170;7.538;2023-04-28T01:05:28;100992.69;;;8.38;nan
56420;BME280;42323;52.170;7.538;2023-04-28T01:07:54;100993.78;;;8.36;nan
56420;BME280;42323;52.170;7.538;2023-04-28T01:10:21;100993.78;;;8.36;nan
56420;BME280;42323;52.170;7.538;2023-04-28T01:12:48;100988.03;;;8.32;nan
56420;BME280;42323;52.170;7.538;2023-04-28T01:15:18;101001.19;;;8.40;nan
56420;BME280;42323;52.170;7.538;2023-04-28T01:17:46;100994.16;;;8.41;nan
56420;BME280;42323;52.170;7.538;2023-04-28T01:20:13;100995.78;;;8.42;nan
56420;BME280;42323;52.170;7.538;2023-04-28T01:22:40;100994.69;;;8.44;nan
56420;BME280;42323;52.170;7.538;2023-04-28T01:25:07;100972.25;;;8.34;nan
56420;BME280;42323;52.170;7.538;2023-04-28T01:27:34;100985.72;;;8.47;nan
56420;BME280;42323;52.170;7.538;2023-04-28T01:30:00;100970.66;;;8.41;nan
56420;BME280;42323;52.170;7.538;2023-04-28T01:32:27;100979.47;;;8.40;nan
56420;BME280;42323;52.170;7.538;2023-04-28T01:34:53;100977.38;;;8.43;nan
56420;BME280;42323;52.170;7.538;2023-04-28T01:37:20;100981.78;;;8.43;nan
56420;BME280;42323;52.170;7.538;2023-04-28T01:39:47;100978.66;;;8.39;nan
56420;BME280;42323;52.170;7.538;2023-04-28T01:42:13;100969.34;;;8.37;nan
56420;BME280;42323;52.170;7.538;2023-04-28T01:44:40;100976.88;;;8.40;nan
56420;BME280;42323;52.170;7.538;2023-04-28T01:47:06;100952.31;;;8.33;nan
56420;BME280;42323;52.170;7.538;2023-04-28T01:49:35;100935.31;;;8.28;nan
56420;BME280;42323;52.170;7.538;2023-04-28T01:52:02;100947.75;;;8.35;nan
56420;BME280;42323;52.170;7.538;2023-04-28T01:54:28;100941.84;;;8.33;nan
56420;BME280;42323;52.170;7.538;2023-04-28T01:56:55;100945.75;;;8.28;nan
56420;BME280;42323;52.170;7.538;2023-04-28T01:59:22;100947.19;;;8.23;nan
56420;BME280;42323;52.170;7.538;2023-04-28T02:01:48;100930.94;;;8.11;nan
56420;BME280;42323;52.170;7.538;2023-04-28T02:04:15;100936.16;;;8.11;nan
56420;BME280;42323;52.170;7.538;2023-04-28T02:06:42;100934.69;;;8.09;nan
56420;BME280;42323;52.170;7.538;2023-04-28T02:09:08;100931.56;;;8.05;nan
56420;BME280;42323;52.170;7.538;2023-04-28T02:11:35;100933.00;;;7.99;nan
56420;BME280;42323;52.170;7.538;2023-04-28T02:14:01;100913.34;;;7.87;nan
56420;BME280;42323;52.170;7.538;2023-04-28T02:16:28;100922.63;;;7.90;nan
56420;BME280;42323;52.170;7.538;2023-04-28T02:18:54;100929.81;;;7.88;nan
56420;BME280;42323;52.170;7.538;2023-04-28T02:21:21;100918.69;;;7.86;nan
56420;BME280;42323;52.170;7.538;2023-04-28T02:23:48;100929.34;;;7.92;nan
56420;BME280;42323;52.170;7.538;2023-04-28T02:26:15;100919.44;;;7.96;nan
56420;BME280;42323;52.170;7.538;2023-04-28T02:28:42;100918.00;;;8.01;nan
56420;BME280;42323;52.170;7.538;2023-04-28T02:31:10;100901.31;;;7.94;nan
56420;BME280;42323;52.170;7.538;2023-04-28T02:33:37;100910.84;;;8.03;nan
56420;BME280;42323;52.170;7.538;2023-04-28T02:36:04;100920.88;;;8.16;nan
56420;BME280;42323;52.170;7.538;2023-04-28T02:38:31;100915.34;;;8.19;nan
56420;BME280;42323;52.170;7.538;2023-04-28T02:41:02;100909.47;;;8.17;nan
56420;BME280;42323;52.170;7.538;2023-04-28T02:43:31;100906.41;;;8.22;nan
56420;BME280;42323;52.170;7.538;2023-04-28T02:45:58;100904.59;;;8.22;nan
56420;BME280;42323;52.170;7.538;2023-04-28T02:48:24;100911.69;;;8.30;nan
56420;BME280;42323;52.170;7.538;2023-04-28T02:50:51;100907.72;;;8.26;nan
56420;BME280;42323;52.170;7.538;2023-04-28T02:53:19;100906.28;;;8.32;nan
56420;BME280;42323;52.170;7.538;2023-04-28T02:55:46;100900.59;;;8.36;nan
56420;BME280;42323;52.170;7.538;2023-04-28T02:58:13;100901.44;;;8.37;nan
56420;BME280;42323;52.170;7.538;2023-04-28T03:00:39;100890.47;;;8.33;nan
56420;BME280;42323;52.170;7.538;2023-04-28T03:03:06;100900.34;;;8.39;nan
56420;BME280;42323;52.170;7.538;2023-04-28T03:05:33;100886.91;;;8.34;nan
56420;BME280;42323;52.170;7.538;2023-04-28T03:08:02;100900.34;;;8.39;nan
56420;BME280;42323;52.170;7.538;2023-04-28T03:10:29;100889.88;;;8.39;nan
56420;BME280;42323;52.170;7.538;2023-04-28T03:12:55;100893.00;;;8.43;nan
56420;BME280;42323;52.170;7.538;2023-04-28T03:15:22;100885.31;;;8.41;nan
56420;BME280;42323;52.170;7.538;2023-04-28T03:17:49;100854.53;;;8.27;nan
56420;BME280;42323;52.170;7.538;2023-04-28T03:20:15;100874.56;;;8.44;nan
56420;BME280;42323;52.170;7.538;2023-04-28T03:22:42;100873.44;;;8.47;nan
56420;BME280;42323;52.170;7.538;2023-04-28T03:25:08;100856.13;;;8.38;nan
56420;BME280;42323;52.170;7.538;2023-04-28T03:27:35;100851.97;;;8.35;nan
56420;BME280;42323;52.170;7.538;2023-04-28T03:30:02;100850.66;;;8.31;nan
56420;BME280;42323;52.170;7.538;2023-04-28T03:32:29;100866.22;;;8.41;nan
56420;BME280;42323;52.170;7.538;2023-04-28T03:34:55;100855.13;;;8.39;nan
56420;BME280;42323;52.170;7.538;2023-04-28T03:37:22;100875.72;;;8.50;nan
56420;BME280;42323;52.170;7.538;2023-04-28T03:39:48;100857.09;;;8.45;nan
56420;BME280;42323;52.170;7.538;2023-04-28T03:42:15;100852.19;;;8.42;nan
56420;BME280;42323;52.170;7.538;2023-04-28T03:44:41;100848.75;;;8.41;nan
56420;BME280;42323;52.170;7.538;2023-04-28T03:47:08;100848.63;;;8.43;nan
56420;BME280;42323;52.170;7.538;2023-04-28T03:49:35;100847.66;;;8.44;nan
56420;BME280;42323;52.170;7.538;2023-04-28T03:52:01;100847.66;;;8.44;nan
56420;BME280;42323;52.170;7.538;2023-04-28T03:54:29;100851.75;;;8.46;nan
56420;BME280;42323;52.170;7.538;2023-04-28T03:56:56;100836.69;;;8.40;nan
56420;BME280;42323;52.170;7.538;2023-04-28T03:59:23;100848.00;;;8.49;nan
56420;BME280;42323;52.170;7.538;2023-04-28T04:01:49;100833.09;;;8.41;nan
56420;BME280;42323;52.170;7.538;2023-04-28T04:04:16;100824.44;;;8.41;nan
56420;BME280;42323;52.170;7.538;2023-04-28T04:06:43;100830.19;;;8.44;nan
56420;BME280;42323;52.170;7.538;2023-04-28T04:09:10;100832.84;;;8.52;nan
56420;BME280;42323;52.170;7.538;2023-04-28T04:11:36;100799.31;;;8.40;nan
56420;BME280;42323;52.170;7.538;2023-04-28T04:14:03;100810.44;;;8.50;nan
56420;BME280;42323;52.170;7.538;2023-04-28T04:16:29;100798.53;;;8.47;nan
56420;BME280;42323;52.170;7.538;2023-04-28T04:18:56;100795.44;;;8.44;nan
56420;BME280;42323;52.170;7.538;2023-04-28T04:21:23;100803.44;;;8.50;nan
56420;BME280;42323;52.170;7.538;2023-04-28T04:23:49;100746.69;;;8.18;nan
56420;BME280;42323;52.170;7.538;2023-04-28T04:26:16;100790.06;;;8.53;nan
56420;BME280;42323;52.170;7.538;2023-04-28T04:28:42;100780.09;;;8.49;nan
56420;BME280;42323;52.170;7.538;2023-04-28T04:31:09;100786.00;;;8.51;nan
56420;BME280;42323;52.170;7.538;2023-04-28T04:33:35;100751.47;;;8.31;nan
56420;BME280;42323;52.170;7.538;2023-04-28T04:36:03;100776.66;;;8.48;nan
56420;BME280;42323;52.170;7.538;2023-04-28T04:38:30;100766.72;;;8.44;nan
56420;BME280;42323;52.170;7.538;2023-04-28T04:40:56;100731.06;;;8.26;nan
56420;BME280;42323;52.170;7.538;2023-04-28T04:43:23;100780.31;;;8.64;nan
56420;BME280;42323;52.170;7.538;2023-04-28T04:45:49;100777.19;;;8.60;nan
56420;BME280;42323;52.170;7.538;2023-04-28T04:48:16;100791.91;;;8.69;nan
56420;BME280;42323;52.170;7.538;2023-04-28T04:50:43;100777.34;;;8.59;nan
56420;BME280;42323;52.170;7.538;2023-04-28T04:53:10;100755.59;;;8.50;nan
56420;BME280;42323;52.170;7.538;2023-04-28T04:55:40;100766.22;;;8.48;nan
56420;BME280;42323;52.170;7.538;2023-04-28T04:58:07;100753.16;;;8.40;nan
56420;BME280;42323;52.170;7.538;2023-04-28T05:00:33;100798.75;;;8.70;nan
56420;BME280;42323;52.170;7.538;2023-04-28T05:03:01;100787.00;;;8.66;nan
56420;BME280;42323;52.170;7.538;2023-04-28T05:05:29;100807.44;;;8.79;nan
56420;BME280;42323;52.170;7.538;2023-04-28T05:07:56;100794.53;;;8.77;nan
56420;BME280;42323;52.170;7.538;2023-04-28T05:10:23;100778.03;;;8.69;nan
56420;BME280;42323;52.170;7.538;2023-04-28T05:12:50;100775.75;;;8.74;nan
56420;BME280;42323;52.170;7.538;2023-04-28T05:15:16;100787.22;;;8.81;nan
56420;BME280;42323;52.170;7.538;2023-04-28T05:17:43;100787.53;;;8.86;nan
56420;BME280;42323;52.170;7.538;2023-04-28T05:20:15;100763.84;;;8.79;nan
56420;BME280;42323;52.170;7.538;2023-04-28T05:22:42;100774.31;;;8.88;nan
56420;BME280;42323;52.170;7.538;2023-04-28T05:25:08;100784.59;;;8.97;nan
56420;BME280;42323;52.170;7.538;2023-04-28T05:27:35;100756.81;;;8.72;nan
56420;BME280;42323;52.170;7.538;2023-04-28T05:30:07;100784.09;;;8.77;nan
56420;BME280;42323;52.170;7.538;2023-04-28T05:32:36;100747.31;;;8.46;nan
56420;BME280;42323;52.170;7.538;2023-04-28T05:35:03;100760.84;;;8.58;nan
56420;BME280;42323;52.170;7.538;2023-04-28T05:37:30;100768.06;;;8.56;nan
56420;BME280;42323;52.170;7.538;2023-04-28T05:39:56;100774.59;;;8.60;nan
56420;BME280;42323;52.170;7.538;2023-04-28T05:42:23;100766.75;;;8.60;nan
56420;BME280;42323;52.170;7.538;2023-04-28T05:44:49;100754.84;;;8.66;nan
56420;BME280;42323;52.170;7.538;2023-04-28T05:47:16;100761.38;;;8.70;nan
56420;BME280;42323;52.170;7.538;2023-04-28T05:49:42;100766.31;;;8.81;nan
56420;BME280;42323;52.170;7.538;2023-04-28T05:52:09;100763.69;;;8.81;nan
56420;BME280;42323;52.170;7.538;2023-04-28T05:54:35;100768.28;;;8.87;nan
56420;BME280;42323;52.170;7.538;2023-04-28T05:57:02;100752.91;;;8.84;nan
56420;BME280;42323;52.170;7.538;2023-04-28T05:59:29;100727.75;;;8.75;nan
56420;BME280;42323;52.170;7.538;2023-04-28T06:02:07;100757.66;;;8.97;nan
56420;BME280;42323;52.170;7.538;2023-04-28T06:04:34;100762.56;;;9.08;nan
56420;BME280;42323;52.170;7.538;2023-04-28T06:07:01;100775.16;;;9.13;nan
56420;BME280;42323;52.170;7.538;2023-04-28T06:09:27;100766.00;;;9.17;nan
56420;BME280;42323;52.170;7.538;2023-04-28T06:11:55;100741.50;;;9.01;nan
56420;BME280;42323;52.170;7.538;2023-04-28T06:14:21;100753.56;;;9.19;nan
56420;BME280;42323;52.170;7.538;2023-04-28T06:16:49;100750.97;;;9.19;nan
56420;BME280;42323;52.170;7.538;2023-04-28T06:19:16;100747.38;;;9.20;nan
56420;BME280;42323;52.170;7.538;2023-04-28T06:21:44;100764.53;;;9.39;nan
56420;BME280;42323;52.170;7.538;2023-04-28T06:24:11;100757.81;;;9.36;nan
56420;BME280;42323;52.170;7.538;2023-04-28T06:26:38;100757.00;;;9.44;nan
56420;BME280;42323;52.170;7.538;2023-04-28T06:29:04;100712.75;;;9.18;nan
56420;BME280;42323;52.170;7.538;2023-04-28T06:31:31;100765.66;;;9.52;nan
56420;BME280;42323;52.170;7.538;2023-04-28T06:34:06;100758.63;;;9.53;nan
56420;BME280;42323;52.170;7.538;2023-04-28T06:36:33;100746.84;;;9.49;nan
56420;BME280;42323;52.170;7.538;2023-04-28T06:38:59;100753.56;;;9.51;nan
56420;BME280;42323;52.170;7.538;2023-04-28T06:41:26;100750.94;;;9.51;nan
56420;BME280;42323;52.170;7.538;2023-04-28T06:43:54;100759.91;;;9.57;nan
56420;BME280;42323;52.170;7.538;2023-04-28T06:46:21;100759.78;;;9.59;nan
56420;BME280;42323;52.170;7.538;2023-04-28T06:48:47;100735.91;;;9.45;nan
56420;BME280;42323;52.170;7.538;2023-04-28T06:51:14;100742.91;;;9.53;nan
56420;BME280;42323;52.170;7.538;2023-04-28T06:53:54;100715.97;;;9.36;nan
56420;BME280;42323;52.170;7.538;2023-04-28T06:56:21;100737.84;;;9.60;nan
56420;BME280;42323;52.170;7.538;2023-04-28T06:58:48;100721.97;;;9.61;nan
56420;BME280;42323;52.170;7.538;2023-04-28T07:01:14;100695.34;;;9.58;nan
56420;BME280;42323;52.170;7.538;2023-04-28T07:03:41;100695.28;;;9.74;nan
56420;BME280;42323;52.170;7.538;2023-04-28T07:06:08;100703.69;;;10.00;nan
56420;BME280;42323;52.170;7.538;2023-04-28T07:08:34;100666.13;;;9.93;nan
56420;BME280;42323;52.170;7.538;2023-04-28T07:11:02;100682.25;;;10.05;nan
56420;BME280;42323;52.170;7.538;2023-04-28T07:13:30;100702.94;;;10.23;nan
56420;BME280;42323;52.170;7.538;2023-04-28T07:15:57;100682.97;;;10.22;nan
56420;BME280;42323;52.170;7.538;2023-04-28T07:18:23;100694.38;;;10.37;nan
56420;BME280;42323;52.170;7.538;2023-04-28T07:20:50;100715.69;;;10.57;nan
56420;BME280;42323;52.170;7.538;2023-04-28T07:23:18;100712.31;;;10.48;nan
56420;BME280;42323;52.170;7.538;2023-04-28T07:25:44;100710.06;;;10.45;nan
56420;BME280;42323;52.170;7.538;2023-04-28T07:28:12;100707.19;;;10.32;nan
56420;BME280;42323;52.170;7.538;2023-04-28T07:30:39;100733.69;;;10.37;nan
56420;BME280;42323;52.170;7.538;2023-04-28T07:33:06;100733.72;;;10.29;nan
56420;BME280;42323;52.170;7.538;2023-04-28T07:35:32;100696.81;;;10.08;nan
56420;BME280;42323;52.170;7.538;2023-04-28T07:37:59;100692.06;;;10.03;nan
56420;BME280;42323;52.170;7.538;2023-04-28T07:40:25;100718.63;;;10.23;nan
56420;BME280;42323;52.170;7.538;2023-04-28T07:42:52;100696.59;;;10.17;nan
56420;BME280;42323;52.170;7.538;2023-04-28T07:45:19;100707.34;;;10.30;nan
56420;BME280;42323;52.170;7.538;2023-04-28T07:47:46;100718.59;;;10.39;nan
56420;BME280;42323;52.170;7.538;2023-04-28T07:50:12;100721.22;;;10.39;nan
56420;BME280;42323;52.170;7.538;2023-04-28T07:52:39;100723.00;;;10.39;nan
56420;BME280;42323;52.170;7.538;2023-04-28T07:55:06;100728.06;;;10.40;nan
56420;BME280;42323;52.170;7.538;2023-04-28T07:57:33;100735.47;;;10.37;nan
56420;BME280;42323;52.170;7.538;2023-04-28T08:00:00;100739.72;;;10.38;nan
56420;BME280;42323;52.170;7.538;2023-04-28T08:02:27;100714.56;;;10.28;nan
56420;BME280;42323;52.170;7.538;2023-04-28T08:04:54;100731.38;;;10.34;nan
56420;BME280;42323;52.170;7.538;2023-04-28T08:07:20;100684.22;;;10.03;nan
56420;BME280;42323;52.170;7.538;2023-04-28T08:09:47;100730.75;;;10.32;nan
56420;BME280;42323;52.170;7.538;2023-04-28T08:12:14;100727.91;;;10.42;nan
56420;BME280;42323;52.170;7.538;2023-04-28T08:14:41;100721.06;;;10.41;nan
56420;BME280;42323;52.170;7.538;2023-04-28T08:17:08;100713.06;;;10.34;nan
56420;BME280;42323;52.170;7.538;2023-04-28T08:19:34;100716.97;;;10.38;nan
56420;BME280;42323;52.170;7.538;2023-04-28T08:22:01;100722.84;;;10.40;nan
56420;BME280;42323;52.170;7.538;2023-04-28T08:24:31;100720.69;;;10.44;nan
56420;BME280;42323;52.170;7.538;2023-04-28T08:27:00;100717.88;;;10.53;nan
56420;BME280;42323;52.170;7.538;2023-04-28T08:29:29;100718.91;;;10.67;nan
56420;BME280;42323;52.170;7.538;2023-04-28T08:31:57;100714.16;;;10.71;nan
56420;BME280;42323;52.170;7.538;2023-04-28T08:34:24;100720.03;;;10.73;nan
56420;BME280;42323;52.170;7.538;2023-04-28T08:36:51;100719.38;;;10.71;nan
56420;BME280;42323;52.170;7.538;2023-04-28T08:39:18;100713.22;;;10.64;nan
56420;BME280;42323;52.170;7.538;2023-04-28T08:41:48;100703.78;;;10.54;nan
56420;BME280;42323;52.170;7.538;2023-04-28T08:44:16;100731.78;;;10.77;nan
56420;BME280;42323;52.170;7.538;2023-04-28T08:46:44;100720.22;;;10.71;nan
56420;BME280;42323;52.170;7.538;2023-04-28T08:49:15;100709.25;;;10.68;nan
56420;BME280;42323;52.170;7.538;2023-04-28T08:51:49;100713.09;;;10.80;nan
56420;BME280;42323;52.170;7.538;2023-04-28T08:54:17;100699.84;;;10.96;nan
56420;BME280;42323;52.170;7.538;2023-04-28T08:56:52;100699.53;;;11.14;nan
56420;BME280;42323;52.170;7.538;2023-04-28T08:59:19;100704.47;;;11.32;nan
56420;BME280;42323;52.170;7.538;2023-04-28T09:01:50;100711.06;;;11.43;nan
56420;BME280;42323;52.170;7.538;2023-04-28T09:04:17;100709.16;;;11.51;nan
56420;BME280;42323;52.170;7.538;2023-04-28T09:06:44;100710.78;;;11.52;nan
56420;BME280;42323;52.170;7.538;2023-04-28T09:09:24;100698.22;;;11.63;nan
56420;BME280;42323;52.170;7.538;2023-04-28T09:11:55;100716.53;;;11.86;nan
56420;BME280;42323;52.170;7.538;2023-04-28T09:14:24;100711.66;;;11.97;nan
56420;BME280;42323;52.170;7.538;2023-04-28T09:16:51;100704.28;;;12.08;nan
56420;BME280;42323;52.170;7.538;2023-04-28T09:19:18;100694.50;;;12.38;nan
56420;BME280;42323;52.170;7.538;2023-04-28T09:21:55;100686.16;;;12.92;nan
56420;BME280;42323;52.170;7.538;2023-04-28T09:24:26;100686.19;;;13.54;nan
56420;BME280;42323;52.170;7.538;2023-04-28T09:26:52;100674.00;;;13.88;nan
56420;BME280;42323;52.170;7.538;2023-04-28T09:29:20;100689.53;;;14.24;nan
56420;BME280;42323;52.170;7.538;2023-04-28T09:31:47;100683.13;;;14.53;nan
56420;BME280;42323;52.170;7.538;2023-04-28T09:34:14;100682.97;;;14.82;nan
56420;BME280;42323;52.170;7.538;2023-04-28T09:36:40;100668.56;;;14.97;nan
56420;BME280;42323;52.170;7.538;2023-04-28T09:39:07;100664.66;;;15.33;nan
56420;BME280;42323;52.170;7.538;2023-04-28T09:41:43;100669.47;;;15.56;nan
56420;BME280;42323;52.170;7.538;2023-04-28T09:44:15;100667.03;;;15.68;nan
56420;BME280;42323;52.170;7.538;2023-04-28T09:46:43;100667.34;;;15.91;nan
56420;BME280;42323;52.170;7.538;2023-04-28T09:49:11;100661.84;;;16.31;nan
56420;BME280;42323;52.170;7.538;2023-04-28T09:51:39;100662.38;;;16.46;nan
56420;BME280;42323;52.170;7.538;2023-04-28T09:54:07;100659.06;;;16.83;nan
56420;BME280;42323;52.170;7.538;2023-04-28T09:56:34;100598.97;;;17.63;nan
56420;BME280;42323;52.170;7.538;2023-04-28T09:59:06;100654.75;;;18.59;nan
56420;BME280;42323;52.170;7.538;2023-04-28T10:01:37;100658.66;;;18.56;nan
56420;BME280;42323;52.170;7.538;2023-04-28T10:04:08;100648.38;;;18.36;nan
56420;BME280;42323;52.170;7.538;2023-04-28T10:06:56;100661.56;;;18.54;nan
56420;BME280;42323;52.170;7.538;2023-04-28T10:09:22;100617.00;;;18.56;nan
56420;BME280;42323;52.170;7.538;2023-04-28T10:11:52;100657.50;;;18.52;nan
56420;BME280;42323;52.170;7.538;2023-04-28T10:14:19;100647.66;;;18.29;nan
56420;BME280;42323;52.170;7.538;2023-04-28T10:16:46;100640.13;;;18.14;nan
56420;BME280;42323;52.170;7.538;2023-04-28T10:19:13;100616.91;;;18.40;nan
56420;BME280;42323;52.170;7.538;2023-04-28T10:21:49;100635.38;;;19.64;nan
56420;BME280;42323;52.170;7.538;2023-04-28T10:24:25;100624.72;;;21.66;nan
56420;BME280;42323;52.170;7.538;2023-04-28T10:27:10;100627.81;;;22.66;nan
56420;BME280;42323;52.170;7.538;2023-04-28T10:29:37;100629.91;;;21.99;nan
56420;BME280;42323;52.170;7.538;2023-04-28T10:32:17;100633.06;;;21.09;nan
56420;BME280;42323;52.170;7.538;2023-04-28T10:34:44;100624.91;;;20.31;nan
56420;BME280;42323;52.170;7.538;2023-04-28T10:37:11;100623.66;;;19.76;nan
56420;BME280;42323;52.170;7.538;2023-04-28T10:39:41;100612.41;;;19.34;nan
56420;BME280;42323;52.170;7.538;2023-04-28T10:42:50;100620.75;;;18.91;nan
56420;BME280;42323;52.170;7.538;2023-04-28T10:56:23;100603.84;;;19.44;nan
56420;BME280;42323;52.170;7.538;2023-04-28T10:58:52;100595.03;;;19.55;nan
56420;BME280;42323;52.170;7.538;2023-04-28T11:12:07;100571.47;;;24.18;nan
56420;BME280;42323;52.170;7.538;2023-04-28T11:14:37;100526.47;;;24.20;nan
56420;BME280;42323;52.170;7.538;2023-04-28T11:17:10;100575.19;;;23.76;nan
56420;BME280;42323;52.170;7.538;2023-04-28T11:19:43;100569.41;;;25.26;nan
56420;BME280;42323;52.170;7.538;2023-04-28T11:22:21;100551.97;;;25.73;nan
56420;BME280;42323;52.170;7.538;2023-04-28T11:25:01;100553.84;;;25.28;nan
56420;BME280;42323;52.170;7.538;2023-04-28T11:27:30;100553.81;;;25.33;nan
56420;BME280;42323;52.170;7.538;2023-04-28T11:29:57;100540.03;;;25.50;nan
56420;BME280;42323;52.170;7.538;2023-04-28T11:32:26;100543.34;;;24.46;nan
56420;BME280;42323;52.170;7.538;2023-04-28T11:34:56;100544.19;;;23.13;nan
56420;BME280;42323;52.170;7.538;2023-04-28T11:37:22;100563.41;;;22.20;nan
56420;BME280;42323;52.170;7.538;2023-04-28T11:39:50;100559.00;;;21.54;nan
56420;BME280;42323;52.170;7.538;2023-04-28T11:42:16;100553.56;;;21.44;nan
56420;BME280;42323;52.170;7.538;2023-04-28T11:44:53;100545.22;;;21.19;nan
56420;BME280;42323;52.170;7.538;2023-04-28T11:47:31;100550.88;;;21.22;nan
56420;BME280;42323;52.170;7.538;2023-04-28T11:49:58;100548.78;;;21.46;nan
56420;BME280;42323;52.170;7.538;2023-04-28T11:52:25;100535.38;;;20.97;nan
56420;BME280;42323;52.170;7.538;2023-04-28T11:54:56;100553.31;;;20.85;nan
56420;BME280;42323;52.170;7.538;2023-04-28T11:57:25;100562.75;;;20.54;nan
56420;BME280;42323;52.170;7.538;2023-04-28T11:59:52;100535.69;;;20.12;nan
56420;BME280;42323;52.170;7.538;2023-04-28T12:02:26;100560.03;;;19.87;nan
56420;BME280;42323;52.170;7.538;2023-04-28T12:04:54;100555.47;;;19.30;nan
56420;BME280;42323;52.170;7.538;2023-04-28T12:07:21;100559.78;;;18.61;nan
56420;BME280;42323;52.170;7.538;2023-04-28T12:10:14;100578.16;;;18.09;nan
56420;BME280;42323;52.170;7.538;2023-04-28T12:12:42;100563.25;;;17.66;nan
56420;BME280;42323;52.170;7.538;2023-04-28T12:15:17;100500.50;;;16.99;nan
56420;BME280;42323;52.170;7.538;2023-04-28T12:17:46;100571.09;;;17.24;nan
56420;BME280;42323;52.170;7.538;2023-04-28T12:20:35;100566.97;;;17.10;nan
56420;BME280;42323;52.170;7.538;2023-04-28T12:23:03;100579.53;;;16.96;nan
56420;BME280;42323;52.170;7.538;2023-04-28T12:25:29;100556.22;;;16.86;nan
56420;BME280;42323;52.170;7.538;2023-04-28T12:28:03;100557.47;;;16.84;nan
56420;BME280;42323;52.170;7.538;2023-04-28T12:30:32;100539.78;;;16.84;nan
56420;BME280;42323;52.170;7.538;2023-04-28T12:32:59;100545.78;;;16.91;nan
56420;BME280;42323;52.170;7.538;2023-04-28T12:35:27;100537.13;;;17.02;nan
56420;BME280;42323;52.170;7.538;2023-04-28T12:37:54;100558.59;;;17.13;nan
56420;BME280;42323;52.170;7.538;2023-04-28T12:40:22;100556.19;;;16.93;nan
56420;BME280;42323;52.170;7.538;2023-04-28T12:42:52;100551.97;;;16.60;nan
56420;BME280;42323;52.170;7.538;2023-04-28T12:45:19;100544.19;;;16.40;nan
56420;BME280;42323;52.170;7.538;2023-04-28T12:47:46;100571.41;;;16.47;nan
56420;BME280;42323;52.170;7.538;2023-04-28T12:50:13;100555.59;;;16.16;nan
56420;BME280;42323;52.170;7.538;2023-04-28T12:52:40;100560.03;;;15.90;nan
56420;BME280;42323;52.170;7.538;2023-04-28T12:55:07;100555.94;;;15.49;nan
56420;BME280;42323;52.170;7.538;2023-04-28T12:57:33;100556.59;;;15.38;nan
56420;BME280;42323;52.170;7.538;2023-04-28T13:00:05;100548.50;;;15.26;nan
56420;BME280;42323;52.170;7.538;2023-04-28T13:02:32;100555.84;;;15.24;nan
56420;BME280;42323;52.170;7.538;2023-04-28T13:04:59;100558.66;;;15.29;nan
56420;BME280;42323;52.170;7.538;2023-04-28T13:07:26;100564.16;;;15.21;nan
56420;BME280;42323;52.170;7.538;2023-04-28T13:09:57;100537.84;;;14.88;nan
56420;BME280;42323;52.170;7.538;2023-04-28T13:12:24;100551.44;;;14.92;nan
56420;BME280;42323;52.170;7.538;2023-04-28T13:14:50;100561.19;;;14.91;nan
56420;BME280;42323;52.170;7.538;2023-04-28T13:17:17;100545.19;;;14.79;nan
56420;BME280;42323;52.170;7.538;2023-04-28T13:19:44;100551.88;;;14.82;nan
56420;BME280;42323;52.170;7.538;2023-04-28T13:22:10;100555.72;;;14.79;nan
56420;BME280;42323;52.170;7.538;2023-04-28T13:24:37;100514.56;;;14.45;nan
56420;BME280;42323;52.170;7.538;2023-04-28T13:27:04;100539.72;;;14.54;nan
56420;BME280;42323;52.170;7.538;2023-04-28T13:29:35;100502.63;;;14.16;nan
56420;BME280;42323;52.170;7.538;2023-04-28T13:32:16;100506.25;;;13.95;nan
56420;BME280;42323;52.170;7.538;2023-04-28T13:34:43;100562.22;;;14.37;nan
56420;BME280;42323;52.170;7.538;2023-04-28T13:37:10;100563.25;;;14.49;nan
56420;BME280;42323;52.170;7.538;2023-04-28T13:39:37;100561.25;;;14.65;nan
56420;BME280;42323;52.170;7.538;2023-04-28T13:42:03;100536.47;;;14.59;nan
56420;BME280;42323;52.170;7.538;2023-04-28T13:44:31;100550.91;;;14.57;nan